Ukiah Municipal Airport
KUKI : now visible

Airfield :











YOU CAN JOIN US ON...

 
LOGIN :

Register | Disclaimer

   EN    FR    IT 

 









Legend :    VFR   Marginal VFR   IFR   Intensive IFR   Very Intensive IFR
Visi :
Ceiling :
>= 8 km
>= 3000ft
5 to 8 km
1000 to 3000 ft
1500m to 5 km
500 to 1000 ft
800 to 1500m
200 to 500 ft
< 800m
< 200 ft
Symbols :   Thunderstorms  Fog  Heavy snow  Heavy precipitations  Wind > 20 kt






- Airport Elevation : 614 ft


KUKI - Ukiah Municipal

CURRENT METAR :
  • 230156Z AUTO 10006KT 10SM CLR 37/15 A2976 RMK AO2 SLP068 T03670150

EXPIRED METARs :
  • 230056Z AUTO 10SM CLR 40/09 A2976 RMK AO2 SLP068 T04000094
  • 222356Z AUTO 27009KT 10SM CLR 41/13 A2977 RMK AO2 SLP070 T04060133 10422 20306 56010
  • 222256Z AUTO VRB06KT 10SM CLR 41/11 A2978 RMK AO2 SLP073 T04110106
  • 222156Z AUTO VRB04KT 10SM CLR 41/12 A2978 RMK AO2 SLP075 T04110122

TAF KUKI
Valid from the 23 at 00:00 until the 24 at 00:00 UTC


222338Z 2300/2324 VRB03KT P6SM SKC
TEMPO 2300/2301 30008KT
FM231200 15002KT P6SM SCT200
KZOA FIR / North America



MET'MAP, your aeronautical weather chart ! - Copyright ORBIFLY December 2007 - Disclaimer

ORBIFLY MET'MAP TEAM :

Programming & Development : Alexandra Zaïnal
Original concept : Baudouin d'Aumeries
Technical & hardware support : Manuel Goepfert
Assistance : Marc-Olivier Méhu




SOURCES & CREDITS :

   NOAA       Earth
Advisory